CheckWX is a tool to help pilots better visualize weather data.  It is not intended as a substitute for an official pre-flight weather briefing.

15:36:59 UTC

PAOM TAF
Nome Airport
Nome, Alaska, USA
PAOM 291124Z 2912/3012 VRB06KT P6SM SKC

Mar-29@
12:00 UTC

Mar-29 @ 12:00 UTC

Mar-30@
12:00 UTC

Mar-30 @ 12:00 UTC

TAF PAOM 291124Z 2912/3012 VRB06KT P6SM SKC
Wind
  • Variable at 6 KTS
Cloud Levels
  • Clear skies